Time;durP1;ratioP1;P1;durP2;ratioP2;P2;SDS_P1;SDS_P2;PMS_P1;PMS_P2;Temp;Humidity;BMP_temperature;BMP_pressure;BME280_temperature;BME280_humidity;BME280_pressure;Samples;Min_cycle;Max_cycle;Signal;HPM_P1;HPM_P2
2022/02/03 00:00:19;;;;;;;0.17;0.10;;;17.30;36.80;17.50;94494.00;;;;10379898;23;48226;-76
2022/02/03 00:05:31;;;;;;;0.10;0.10;;;17.20;36.90;17.50;94481.00;;;;10359935;28;47614;-73
2022/02/03 00:26:31;;;;;;;0.20;0.20;;;17.20;36.90;17.50;94474.00;;;;10357379;28;45190;-76
2022/02/03 00:31:41;;;;;;;0.73;0.40;;;17.20;37.10;17.40;94433.00;;;;10358008;28;46954;-75
2022/02/03 00:52:38;;;;;;;0.28;0.20;;;17.10;37.00;17.40;94444.00;;;;10357730;28;45173;-76
2022/02/03 00:57:51;;;;;;;0.20;0.20;;;17.20;37.20;17.40;94435.00;;;;10356487;28;45431;-76
2022/02/03 01:03:11;;;;;;;0.22;0.10;;;17.10;36.90;17.40;94438.00;;;;10356653;28;47274;-75
2022/02/03 01:08:20;;;;;;;0.22;0.20;;;17.10;37.10;17.30;94420.00;;;;10357028;28;47333;-74
2022/02/03 01:45:00;;;;;;;0.38;0.30;;;17.00;37.30;17.20;94448.00;;;;10396155;28;45177;-76
2022/02/03 01:55:21;;;;;;;0.50;0.45;;;17.00;37.50;17.20;94425.00;;;;10395620;28;45127;-75
2022/02/03 02:00:22;;;;;;;0.55;0.50;;;17.00;37.50;17.20;94443.00;;;;10392457;28;45228;-75
2022/02/03 02:05:50;;;;;;;0.73;0.50;;;16.90;37.30;17.20;94429.00;;;;10392222;28;45494;-75
2022/02/03 02:11:37;;;;;;;0.70;0.57;;;16.90;37.40;17.20;94422.00;;;;10395043;28;47173;-75
2022/02/03 02:17:10;;;;;;;0.70;0.50;;;16.90;37.50;17.10;94436.00;;;;10398692;28;46098;-76
2022/02/03 02:43:50;;;;;;;1.38;0.57;;;16.80;38.30;17.10;94399.00;;;;10401430;28;45109;-75
2022/02/03 02:49:44;;;;;;;1.10;0.60;;;16.80;37.50;17.10;94385.00;;;;10400441;28;48316;-75
2022/02/03 03:01:34;;;;;;;0.80;0.50;;;16.80;37.50;17.00;94370.00;;;;10400281;28;45929;-76
2022/02/03 03:33:55;;;;;;;0.50;0.40;;;16.70;37.60;16.80;94358.00;;;;10358692;28;45599;-76
2022/02/03 03:38:34;;;;;;;0.63;0.20;;;16.60;37.60;16.80;94373.00;;;;10354760;28;46208;-76
2022/02/03 03:44:03;;;;;;;0.75;0.30;;;16.60;37.70;16.80;94365.00;;;;10358323;28;47353;-76
2022/02/03 03:49:16;;;;;;;0.57;0.30;;;16.60;37.70;16.90;94362.00;;;;10357702;28;47118;-75
2022/02/03 03:54:39;;;;;;;0.40;0.20;;;16.60;37.70;16.90;94350.00;;;;10357249;28;47913;-76
2022/02/03 05:06:14;;;;;;;0.45;0.10;;;17.10;36.60;17.30;94317.00;;;;10355334;28;45162;-75
2022/02/03 05:41:58;;;;;;;2.50;1.30;;;17.20;36.30;17.50;94292.00;;;;10395492;28;45637;-76
2022/02/03 05:52:00;;;;;;;2.78;1.63;;;17.30;36.10;17.50;94241.00;;;;10374763;28;45341;-75
2022/02/03 06:07:43;;;;;;;2.30;1.40;;;17.30;35.90;17.50;94225.00;;;;10360084;28;45422;-75
2022/02/03 06:13:05;;;;;;;1.57;0.90;;;17.30;35.80;17.50;94253.00;;;;10347232;28;47382;-76
2022/02/03 06:23:41;;;;;;;1.13;0.77;;;17.30;35.80;17.50;94271.00;;;;10391564;28;45133;-76
2022/02/03 06:28:47;;;;;;;0.75;0.60;;;17.30;35.90;17.50;94249.00;;;;10386688;28;47305;-75
2022/02/03 06:33:48;;;;;;;0.47;0.40;;;17.30;35.70;17.50;94257.00;;;;10401319;28;47097;-76
2022/02/03 06:38:48;;;;;;;0.40;0.20;;;17.30;35.70;17.50;94241.00;;;;10384076;28;47167;-76
2022/02/03 06:43:49;;;;;;;0.75;0.35;;;17.30;35.60;17.50;94244.00;;;;10400636;28;47235;-76
2022/02/03 06:48:56;;;;;;;0.50;0.50;;;17.30;35.60;17.50;94232.00;;;;10400382;28;46933;-75
2022/02/03 06:54:03;;;;;;;0.45;0.25;;;17.30;35.50;17.50;94238.00;;;;10400827;28;47968;-76
2022/02/03 06:59:09;;;;;;;0.25;0.20;;;17.30;35.50;17.50;94242.00;;;;10400848;28;48001;-76
2022/02/03 07:04:21;;;;;;;1.88;0.30;;;17.30;35.50;17.50;94237.00;;;;10404119;28;45179;-76
2022/02/03 07:09:21;;;;;;;0.38;0.30;;;17.30;35.60;17.50;94232.00;;;;10399389;28;47052;-76
2022/02/03 07:14:24;;;;;;;0.40;0.30;;;17.30;35.50;17.50;94231.00;;;;10399894;28;47982;-76
2022/02/03 07:19:25;;;;;;;0.45;0.30;;;17.30;35.50;17.50;94211.00;;;;10399003;28;46955;-74
2022/02/03 07:24:25;;;;;;;0.30;0.30;;;17.30;35.60;17.50;94218.00;;;;10360079;28;45236;-75
2022/02/03 07:29:26;;;;;;;0.47;0.43;;;17.30;35.70;17.50;94222.00;;;;10355590;28;47233;-75
2022/02/03 07:34:27;;;;;;;1.17;0.60;;;17.20;35.70;17.40;94214.00;;;;10357491;28;45368;-76
2022/02/03 07:39:27;;;;;;;0.63;0.43;;;17.20;35.70;17.40;94194.00;;;;10357577;28;47512;-76
2022/02/03 07:44:28;;;;;;;0.43;0.43;;;17.20;35.80;17.40;94198.00;;;;10357530;28;45253;-76
2022/02/03 07:49:29;;;;;;;0.47;0.40;;;17.20;35.70;17.40;94197.00;;;;10357469;28;47340;-76
2022/02/03 07:54:31;;;;;;;0.30;0.30;;;17.20;35.90;17.50;94183.00;;;;10357397;28;47019;-76
2022/02/03 07:59:32;;;;;;;1.00;0.50;;;17.20;36.30;17.50;94163.00;;;;10356171;28;47326;-74
2022/02/03 08:04:38;;;;;;;0.50;0.50;;;17.30;36.20;17.40;94178.00;;;;10355461;28;47396;-75
2022/02/03 08:09:49;;;;;;;0.90;0.70;;;17.20;36.10;17.40;94161.00;;;;10355631;28;48321;-76
2022/02/03 08:14:51;;;;;;;0.60;0.50;;;17.20;36.00;17.40;94158.00;;;;10369556;28;47014;-76
2022/02/03 08:19:59;;;;;;;0.90;0.50;;;17.20;36.10;17.40;94171.00;;;;10355567;28;45735;-76
2022/02/03 08:25:19;;;;;;;0.55;0.40;;;17.20;36.00;17.40;94169.00;;;;10395721;28;48049;-76
2022/02/03 08:35:35;;;;;;;0.65;0.52;;;17.20;36.40;17.40;94152.00;;;;10391023;28;45416;-76
2022/02/03 08:45:48;;;;;;;1.00;0.60;;;17.20;36.30;17.50;94137.00;;;;10395605;28;45160;-76
2022/02/03 08:50:49;;;;;;;0.60;0.60;;;17.20;36.30;17.40;94145.00;;;;10361673;28;47154;-76
2022/02/03 08:56:01;;;;;;;3.00;1.27;;;17.20;36.30;17.40;94136.00;;;;10354001;28;47017;-75
2022/02/03 09:54:16;;;;;;;10.15;2.78;;;17.60;37.80;18.70;94079.00;;;;10395353;28;45367;-76
2022/02/03 09:59:16;;;;;;;2.33;1.20;;;17.70;38.20;18.60;94088.00;;;;10394425;28;45332;-78
2022/02/03 10:04:51;;;;;;;4.38;1.85;;;18.10;38.20;18.70;94091.00;;;;10394239;28;47373;-78
2022/02/03 10:09:54;;;;;;;4.40;1.15;;;18.10;38.30;18.60;94072.00;;;;10394466;28;46148;-78
2022/02/03 10:14:56;;;;;;;1.83;0.75;;;18.40;38.70;18.80;94074.00;;;;10394253;28;48211;-74
2022/02/03 10:20:04;;;;;;;5.82;1.98;;;18.50;38.40;18.80;94073.00;;;;10391785;28;45445;-74
2022/02/03 10:25:13;;;;;;;3.40;1.33;;;18.60;39.00;18.90;94049.00;;;;10353043;28;47191;-79
2022/02/03 10:30:28;;;;;;;3.42;0.95;;;18.70;39.10;19.00;94060.00;;;;10354116;28;48100;-81
2022/02/03 10:35:40;;;;;;;1.70;0.70;;;18.80;38.90;19.00;94040.00;;;;10354020;28;45413;-82
2022/02/03 10:40:57;;;;;;;1.67;1.00;;;18.90;38.30;19.00;94027.00;;;;10360608;28;47180;-78
2022/02/03 10:46:24;;;;;;;2.40;0.77;;;18.90;37.70;19.10;94051.00;;;;10362789;28;47541;-80
2022/02/03 11:02:38;;;;;;;3.03;0.63;;;19.00;37.60;19.10;94009.00;;;;10359989;28;45130;-73
2022/02/03 11:07:49;;;;;;;2.13;0.88;;;19.10;37.70;19.20;94010.00;;;;10363776;28;47063;-80
2022/02/03 11:12:52;;;;;;;1.35;0.50;;;19.10;37.70;19.20;93998.00;;;;10360870;28;47300;-79
2022/02/03 11:17:58;;;;;;;2.35;0.60;;;19.10;38.20;19.20;93972.00;;;;10358366;28;45315;-78
2022/02/03 11:33:54;;;;;;;2.60;1.55;;;19.10;36.50;18.80;93947.00;;;;10359313;28;45165;-79
2022/02/03 12:11:14;;;;;;;4.32;2.78;;;18.20;36.40;18.20;93884.00;;;;10359752;28;45218;-79
2022/02/03 12:16:46;;;;;;;4.70;3.08;;;18.10;36.10;18.00;93887.00;;;;10359457;28;47144;-78
2022/02/03 12:22:16;;;;;;;4.97;2.90;;;17.90;36.30;18.00;93861.00;;;;10382933;28;47864;-79
2022/02/03 12:43:41;;;;;;;3.22;2.28;;;17.90;36.50;18.10;93820.00;;;;10292072;27;45237;-78
2022/02/03 12:48:10;;;;;;;5.38;3.10;;;17.80;36.30;18.10;93817.00;;;;10355016;28;46002;-78
2022/02/03 12:53:11;;;;;;;3.47;2.15;;;17.90;36.30;18.10;93822.00;;;;10356057;28;45322;-78
2022/02/03 12:58:16;;;;;;;4.65;2.38;;;17.90;36.20;18.10;93808.00;;;;10354665;28;47536;-78
2022/02/03 13:03:18;;;;;;;4.93;2.60;;;17.90;36.30;18.20;93816.00;;;;10358772;28;47210;-78
2022/02/03 13:08:30;;;;;;;5.20;2.63;;;18.00;36.20;18.20;93791.00;;;;10355065;28;47185;-78
2022/02/03 13:13:50;;;;;;;4.55;2.60;;;18.00;36.20;18.20;93791.00;;;;10355333;28;45339;-78
2022/02/03 13:19:11;;;;;;;4.18;2.47;;;18.00;36.20;18.20;93785.00;;;;10357323;28;47867;-78
2022/02/03 13:24:22;;;;;;;4.28;2.20;;;18.00;36.10;18.20;93752.00;;;;10356006;28;48107;-78
2022/02/03 13:29:36;;;;;;;6.22;2.92;;;18.00;36.10;18.40;93745.00;;;;10355612;28;45379;-81
2022/02/03 13:34:52;;;;;;;3.95;2.40;;;18.20;37.30;18.30;93774.00;;;;10356764;28;47392;-78
2022/02/03 13:40:15;;;;;;;4.32;2.17;;;18.20;36.80;18.30;93771.00;;;;10353960;28;47975;-78
2022/02/03 13:45:20;;;;;;;3.58;1.95;;;18.20;36.60;18.30;93747.00;;;;10352023;28;45190;-77
2022/02/03 13:50:25;;;;;;;3.13;2.13;;;18.20;36.40;18.30;93744.00;;;;10352479;28;47065;-78
2022/02/03 14:17:43;;;;;;;3.30;2.05;;;18.10;36.00;18.30;93746.00;;;;10359329;28;45251;-79
2022/02/03 14:27:53;;;;;;;2.53;1.60;;;18.10;36.00;18.30;93736.00;;;;10401657;28;45224;-78
2022/02/03 14:32:57;;;;;;;3.72;1.65;;;18.10;36.00;18.30;93729.00;;;;10401842;28;46448;-79
2022/02/03 14:38:12;;;;;;;2.38;1.40;;;18.10;35.90;18.40;93709.00;;;;10385767;28;48245;-78
2022/02/03 14:43:13;;;;;;;2.42;1.10;;;18.20;37.00;18.70;93730.00;;;;10406060;28;46250;-78
2022/02/03 14:48:15;;;;;;;2.28;1.35;;;18.40;36.50;18.80;93706.00;;;;10421590;28;45299;-78
2022/02/03 14:53:29;;;;;;;5.45;1.40;;;18.50;37.30;18.90;93721.00;;;;10412625;28;48075;-77
2022/02/03 14:58:40;;;;;;;5.18;1.63;;;18.60;37.50;18.90;93706.00;;;;10401793;28;45320;-77
2022/02/03 15:03:41;;;;;;;6.50;1.50;;;18.70;37.00;18.80;93720.00;;;;10370679;28;46708;-76
2022/02/03 15:08:56;;;;;;;2.08;1.05;;;18.70;36.70;18.80;93738.00;;;;10357986;28;46493;-77
2022/02/03 15:13:56;;;;;;;8.13;1.10;;;18.60;36.50;18.80;93730.00;;;;10344321;28;47438;-77
2022/02/03 15:18:57;;;;;;;5.30;1.48;;;18.60;36.30;18.80;93733.00;;;;10358621;28;47682;-77
2022/02/03 15:23:58;;;;;;;6.45;1.40;;;18.50;36.10;18.80;93726.00;;;;10359502;28;46444;-77
2022/02/03 15:28:59;;;;;;;4.68;1.55;;;18.60;36.80;18.80;93728.00;;;;10341512;28;46954;-76
2022/02/03 15:34:08;;;;;;;1.85;1.10;;;18.50;35.80;18.80;93745.00;;;;10358968;28;47052;-77
2022/02/03 15:39:11;;;;;;;3.30;1.30;;;18.60;35.80;18.80;93705.00;;;;10359870;28;47275;-79
2022/02/03 15:44:12;;;;;;;2.90;1.17;;;18.50;35.70;18.80;93710.00;;;;10358706;28;46006;-77
2022/02/03 16:00:47;;;;;;;1.95;1.15;;;18.50;35.50;18.80;93705.00;;;;10358137;28;45043;-77
2022/02/03 16:21:24;;;;;;;1.88;1.20;;;18.50;35.30;18.80;93714.00;;;;10355183;28;45051;-77
2022/02/03 16:43:09;;;;;;;1.55;1.27;;;18.50;35.10;18.80;93694.00;;;;10357464;28;45695;-77
2022/02/03 16:52:57;;;;;;;1.58;1.25;;;18.50;34.90;18.80;93694.00;;;;10356856;28;45394;-77
2022/02/03 16:57:58;;;;;;;1.98;1.30;;;18.50;34.80;18.80;93700.00;;;;10355707;28;47056;-77
2022/02/03 17:03:00;;;;;;;1.80;1.23;;;18.50;34.80;18.80;93702.00;;;;10355605;28;47049;-77
2022/02/03 17:08:01;;;;;;;2.35;1.23;;;18.50;34.70;18.70;93684.00;;;;10355677;28;47420;-77
2022/02/03 17:13:02;;;;;;;1.35;1.00;;;18.50;34.60;18.70;93707.00;;;;10355662;28;47069;-77
2022/02/03 17:18:07;;;;;;;1.65;1.23;;;18.50;34.60;18.70;93704.00;;;;10339016;28;46919;-77
2022/02/03 17:23:12;;;;;;;1.80;1.10;;;18.50;34.50;18.70;93693.00;;;;10337851;28;48208;-77
2022/02/03 17:28:32;;;;;;;1.92;1.10;;;18.50;34.50;18.70;93714.00;;;;10355741;28;46196;-77
2022/02/03 18:06:09;;;;;;;6.40;1.35;;;19.10;36.40;19.30;93681.00;;;;10366108;28;45101;-80
2022/02/03 18:27:13;;;;;;;4.25;1.00;;;19.00;35.70;19.40;93694.00;;;;10366951;28;45126;-80
2022/02/03 18:37:34;;;;;;;5.22;0.90;;;19.10;35.50;19.40;93682.00;;;;10365853;28;45406;-79
2022/02/03 20:07:17;;;;;;;5.10;2.80;;;18.60;33.10;18.80;93679.00;;;;10357813;28;45174;-79
2022/02/03 20:12:18;;;;;;;4.80;2.25;;;18.60;32.80;18.70;93672.00;;;;10358394;28;48153;-79
2022/02/03 20:17:19;;;;;;;2.05;1.65;;;18.50;32.50;18.70;93678.00;;;;10357655;28;45473;-80
2022/02/03 20:22:21;;;;;;;2.10;1.50;;;18.40;32.50;18.60;93690.00;;;;10378932;28;47441;-80
2022/02/03 20:27:22;;;;;;;1.50;1.20;;;18.40;32.50;18.50;93682.00;;;;10398067;28;45349;-80
2022/02/03 20:32:23;;;;;;;1.30;0.90;;;18.30;32.50;18.50;93668.00;;;;10398036;28;45555;-80
2022/02/03 20:37:24;;;;;;;1.10;0.85;;;18.30;32.60;18.40;93680.00;;;;10397297;28;48311;-80
2022/02/03 20:42:24;;;;;;;1.83;0.98;;;18.20;32.60;18.40;93678.00;;;;10397858;28;47731;-79
2022/02/03 20:47:25;;;;;;;2.03;1.35;;;18.20;32.60;18.40;93651.00;;;;10397150;28;47124;-79
2022/02/03 20:52:26;;;;;;;3.72;2.10;;;18.20;32.60;18.40;93656.00;;;;10397413;28;47972;-79
2022/02/03 20:57:27;;;;;;;4.68;2.30;;;18.10;32.60;18.30;93660.00;;;;10397097;28;46900;-79
2022/02/03 21:02:37;;;;;;;4.25;2.22;;;18.10;32.60;18.30;93657.00;;;;10396595;28;47065;-79
2022/02/03 21:07:41;;;;;;;3.38;2.20;;;18.10;32.50;18.10;93651.00;;;;10380951;28;47209;-78
2022/02/03 21:12:42;;;;;;;3.15;2.00;;;18.00;32.30;18.00;93637.00;;;;10396866;28;47293;-79
2022/02/03 21:17:43;;;;;;;3.08;1.80;;;17.90;32.40;18.00;93626.00;;;;10396206;28;47232;-80
2022/02/03 21:22:44;;;;;;;2.88;1.75;;;17.80;32.40;18.10;93643.00;;;;10371275;28;47283;-79
2022/02/03 21:27:46;;;;;;;2.40;1.25;;;17.80;32.40;18.00;93639.00;;;;10355302;28;46886;-81
2022/02/03 21:32:48;;;;;;;1.30;0.90;;;17.80;32.40;18.00;93633.00;;;;10355509;28;45317;-80
2022/02/03 21:37:50;;;;;;;1.00;0.80;;;17.80;32.00;18.00;93648.00;;;;10354432;28;47074;-80
2022/02/03 21:42:51;;;;;;;1.13;0.73;;;17.70;31.90;17.90;93617.00;;;;10355087;28;47039;-80
2022/02/03 21:47:51;;;;;;;1.08;0.80;;;17.70;31.90;18.00;93613.00;;;;10354413;28;48287;-80
2022/02/03 21:52:54;;;;;;;1.13;0.73;;;17.70;32.10;18.00;93629.00;;;;10338057;28;48178;-80
2022/02/03 21:57:56;;;;;;;0.75;0.52;;;17.70;31.70;18.00;93649.00;;;;10338079;28;47256;-80
2022/02/03 22:02:57;;;;;;;1.08;0.65;;;17.70;31.60;17.80;93634.00;;;;10354180;28;47150;-81
2022/02/03 22:07:57;;;;;;;1.30;0.80;;;17.60;31.90;17.70;93642.00;;;;10354117;28;45451;-80
2022/02/03 22:12:58;;;;;;;0.90;0.70;;;17.60;32.00;17.70;93636.00;;;;10354171;28;45104;-80
2022/02/03 22:17:59;;;;;;;2.00;1.40;;;17.50;32.10;17.70;93642.00;;;;10352164;28;46978;-81
2022/02/03 22:28:53;;;;;;;1.77;1.10;;;17.40;32.30;17.70;93646.00;;;;10356407;28;45924;-80
2022/02/03 22:39:13;;;;;;;2.10;0.90;;;17.40;32.30;17.70;93632.00;;;;10362610;28;45626;-79
2022/02/03 22:44:29;;;;;;;0.60;0.57;;;17.40;32.20;17.80;93636.00;;;;10363388;28;47429;-79
2022/02/03 22:49:30;;;;;;;0.43;0.43;;;17.50;32.40;17.80;93643.00;;;;10345893;28;47110;-80
2022/02/03 22:54:31;;;;;;;0.68;0.52;;;17.60;32.30;17.90;93617.00;;;;10360019;28;47568;-80
2022/02/03 23:04:35;;;;;;;1.52;0.70;;;17.60;32.50;17.90;93624.00;;;;10359452;28;45229;-79
2022/02/03 23:25:02;;;;;;;1.40;0.80;;;17.70;32.50;18.00;93647.00;;;;10360154;28;45185;-80
2022/02/03 23:30:05;;;;;;;1.00;0.90;;;17.70;32.60;18.00;93629.00;;;;10359586;28;46301;-79
2022/02/03 23:35:19;;;;;;;1.83;0.88;;;17.70;32.70;18.00;93625.00;;;;10359144;28;47377;-79
